Time;durP1;ratioP1;P1;durP2;ratioP2;P2;SDS_P1;SDS_P2;PMS_P1;PMS_P2;Temp;Humidity;BMP_temperature;BMP_pressure;BME280_temperature;BME280_humidity;BME280_pressure;Samples;Min_cycle;Max_cycle;Signal;HPM_P1;HPM_P2
2022/02/07 00:00:40;;;;;;;;;;;;;;;;;;4989413;28;19918;-67
2022/02/07 00:03:13;;;;;;;;;;;;;;;;;;4992224;28;20015;-66
2022/02/07 00:05:38;;;;;;;;;;;;;;;;;;4994403;28;20584;-66
2022/02/07 00:08:04;;;;;;;;;;;;;;;;;;4989463;28;19914;-65
2022/02/07 00:10:30;;;;;;;;;;;;;;;;;;4993656;28;19963;-65
2022/02/07 00:12:55;;;;;;;;;;;;;;;;;;4987242;28;20065;-65
2022/02/07 00:15:20;;;;;;;;;;;;;;;;;;4991865;28;19918;-65
2022/02/07 00:17:45;;;;;;;;;;;;;;;;;;4991857;28;19913;-64
2022/02/07 00:20:15;;;;;;;;;;;;;;;;;;4990067;28;19957;-64
2022/02/07 00:22:40;;;;;;;;;;;;;;;;;;4994619;28;20284;-64
2022/02/07 00:25:05;;;;;;;;;;;;;;;;;;4986890;28;19918;-65
2022/02/07 00:27:31;;;;;;;;;;;;;;;;;;4991725;28;20852;-65
2022/02/07 00:29:56;;;;;;;;;;;;;;;;;;4993622;28;19918;-66
2022/02/07 00:32:21;;;;;;;;;;;;;;;;;;4989344;28;20300;-66
2022/02/07 00:34:46;;;;;;;;;;;;;;;;;;4996240;28;20690;-66
2022/02/07 00:37:12;;;;;;;;;;;;;;;;;;4982803;28;19921;-65
2022/02/07 00:39:49;;;;;;;;;;;;;;;;;;4992320;28;19913;-65
2022/02/07 00:42:24;;;;;;;;;;;;;;;;;;5002093;28;19917;-64
2022/02/07 00:44:50;;;;;;;;;;;;;;;;;;4993620;28;19921;-65
2022/02/07 00:47:15;;;;;;;;;;;;;;;;;;4995268;28;19964;-64
2022/02/07 00:49:41;;;;;;;;;;;;;;;;;;4997469;28;20000;-64
2022/02/07 00:52:06;;;;;;;;;;;;;;;;;;4993459;28;19909;-64
2022/02/07 00:54:31;;;;;;;;;;;;;;;;;;4996483;28;20131;-63
2022/02/07 00:56:57;;;;;;;;;;;;;;;;;;4991973;28;20156;-62
2022/02/07 00:59:22;;;;;;;;;;;;;;;;;;4993744;28;20463;-62
2022/02/07 01:01:47;;;;;;;;;;;;;;;;;;4990248;28;19921;-62
2022/02/07 01:04:14;;;;;;;;;;;;;;;;;;4992478;28;20020;-63
2022/02/07 01:07:06;;;;;;;;;;;;;;;;;;4989834;28;19921;-62
2022/02/07 01:09:43;;;;;;;;;;;;;;;;;;4995352;28;19949;-62
2022/02/07 01:15:26;;;;;;;;;;;;;;;;;;4992911;28;19917;-62
2022/02/07 01:53:34;;;;;;;;;;;;;;;;;;4989328;28;19989;-62
2022/02/07 01:56:06;;;;;;;;;;;;;;;;;;5003622;28;19971;-62
2022/02/07 01:58:36;;;;;;;;;;;;;;;;;;4999270;28;19918;-62
2022/02/07 02:01:01;;;;;;;;;;;;;;;;;;4981172;28;19940;-62
2022/02/07 02:03:26;;;;;;;;;;;;;;;;;;4995624;28;19921;-62
2022/02/07 02:05:57;;;;;;;;;;;;;;;;;;4985696;28;19964;-62
2022/02/07 02:08:38;;;;;;;;;;;;;;;;;;4989894;28;19914;-62
2022/02/07 02:11:05;;;;;;;;;;;;;;;;;;4999011;28;19997;-62
2022/02/07 02:16:23;;;;;;;;;;;;;;;;;;4997195;28;19913;-63
2022/02/07 02:37:47;;;;;;;;;;;;;;;;;;4967240;28;19910;-62
2022/02/07 02:45:35;;;;;;;;;;;;;;;;;;4990934;28;19926;-62
2022/02/07 02:48:23;;;;;;;;;;;;;;;;;;4991842;28;19953;-62
2022/02/07 02:50:51;;;;;;;;;;;;;;;;;;5000129;28;20440;-62
2022/02/07 02:53:17;;;;;;;;;;;;;;;;;;5002316;28;20267;-62
2022/02/07 02:55:42;;;;;;;;;;;;;;;;;;4992872;28;20382;-62
2022/02/07 02:58:09;;;;;;;;;;;;;;;;;;4972382;28;20152;-62
2022/02/07 03:00:34;;;;;;;;;;;;;;;;;;4979395;28;20702;-61
2022/02/07 03:03:02;;;;;;;;;;;;;;;;;;4999787;28;19918;-62
2022/02/07 03:05:27;;;;;;;;;;;;;;;;;;4986380;28;19913;-62
2022/02/07 03:07:52;;;;;;;;;;;;;;;;;;4993179;28;20074;-61
2022/02/07 03:13:00;;;;;;;;;;;;;;;;;;4994170;28;20112;-63
2022/02/07 03:18:11;;;;;;;;;;;;;;;;;;4996463;28;20386;-61
2022/02/07 03:20:36;;;;;;;;;;;;;;;;;;4993262;28;19913;-62
2022/02/07 03:23:01;;;;;;;;;;;;;;;;;;4981396;28;19921;-62
2022/02/07 03:25:27;;;;;;;;;;;;;;;;;;4987853;28;20374;-62
2022/02/07 03:27:53;;;;;;;;;;;;;;;;;;4993259;28;19917;-62
2022/02/07 03:30:29;;;;;;;;;;;;;;;;;;4991350;28;19917;-62
2022/02/07 03:32:55;;;;;;;;;;;;;;;;;;4994839;28;19971;-62
2022/02/07 03:35:20;;;;;;;;;;;;;;;;;;4999697;28;19918;-62
2022/02/07 03:37:45;;;;;;;;;;;;;;;;;;4974173;28;20331;-62
2022/02/07 03:40:13;;;;;;;;;;;;;;;;;;4995581;28;19922;-61
2022/02/07 03:42:40;;;;;;;;;;;;;;;;;;4997261;28;20040;-61
2022/02/07 03:45:07;;;;;;;;;;;;;;;;;;4989898;28;20699;-61
2022/02/07 03:47:36;;;;;;;;;;;;;;;;;;5002076;28;19910;-61
2022/02/07 03:50:02;;;;;;;;;;;;;;;;;;4996713;28;20301;-61
2022/02/07 03:52:29;;;;;;;;;;;;;;;;;;5000315;28;19924;-61
2022/02/07 03:54:55;;;;;;;;;;;;;;;;;;4992697;28;19993;-61
2022/02/07 03:57:20;;;;;;;;;;;;;;;;;;4997585;28;20290;-61
2022/02/07 03:59:45;;;;;;;;;;;;;;;;;;5003822;28;20369;-61
2022/02/07 04:02:10;;;;;;;;;;;;;;;;;;4993510;28;19991;-60
2022/02/07 04:04:38;;;;;;;;;;;;;;;;;;4996452;28;19925;-61
2022/02/07 04:07:06;;;;;;;;;;;;;;;;;;4997081;28;20024;-61
2022/02/07 04:09:40;;;;;;;;;;;;;;;;;;4991769;28;20429;-61
2022/02/07 04:12:08;;;;;;;;;;;;;;;;;;4997260;28;19917;-61
2022/02/07 04:14:41;;;;;;;;;;;;;;;;;;4991750;28;19920;-61
2022/02/07 04:17:17;;;;;;;;;;;;;;;;;;4992367;28;19909;-61
2022/02/07 04:19:43;;;;;;;;;;;;;;;;;;5013615;28;20273;-61
2022/02/07 04:22:10;;;;;;;;;;;;;;;;;;4995893;28;20370;-61
2022/02/07 04:24:45;;;;;;;;;;;;;;;;;;4997735;28;19921;-61
2022/02/07 04:27:14;;;;;;;;;;;;;;;;;;4994034;28;19918;-61
2022/02/07 04:29:39;;;;;;;;;;;;;;;;;;4983220;28;19921;-61
2022/02/07 04:32:06;;;;;;;;;;;;;;;;;;4996053;28;19914;-61
2022/02/07 04:34:32;;;;;;;;;;;;;;;;;;4991887;28;19972;-61
2022/02/07 04:36:58;;;;;;;;;;;;;;;;;;4995771;28;19917;-61
2022/02/07 04:39:24;;;;;;;;;;;;;;;;;;4991261;28;20017;-61
2022/02/07 04:41:55;;;;;;;;;;;;;;;;;;4993782;28;19918;-61
2022/02/07 04:44:27;;;;;;;;;;;;;;;;;;5000176;28;19921;-61
2022/02/07 04:53:08;;;;;;;;;;;;;;;;;;4997040;28;19914;-61
2022/02/07 04:55:08;;;;;;;;;;;;;;;;;;4981020;28;20003;-61
2022/02/07 05:02:44;;;;;;;;;;;;;;;;;;4997687;28;19991;-61
2022/02/07 05:15:50;;;;;;;;;;;;;;;;;;4998987;28;19972;-61
2022/02/07 05:18:17;;;;;;;;;;;;;;;;;;4992333;28;19993;-61
2022/02/07 05:21:03;;;;;;;;;;;;;;;;;;4967900;28;19909;-61
2022/02/07 05:23:40;;;;;;;;;;;;;;;;;;4992895;28;19933;-61
2022/02/07 05:26:24;;;;;;;;;;;;;;;;;;4992107;28;19977;-61
2022/02/07 05:29:07;;;;;;;;;;;;;;;;;;4995612;28;19924;-61
2022/02/07 05:31:42;;;;;;;;;;;;;;;;;;4994341;28;19914;-61
2022/02/07 05:34:32;;;;;;;;;;;;;;;;;;4991632;28;19929;-61
2022/02/07 05:37:06;;;;;;;;;;;;;;;;;;4989953;28;19940;-61
2022/02/07 05:39:45;;;;;;;;;;;;;;;;;;4992385;28;19914;-61
2022/02/07 05:42:30;;;;;;;;;;;;;;;;;;4966739;28;20000;-62
2022/02/07 05:45:09;;;;;;;;;;;;;;;;;;4996442;28;19932;-61
2022/02/07 05:47:55;;;;;;;;;;;;;;;;;;4990868;28;19941;-62
2022/02/07 05:50:26;;;;;;;;;;;;;;;;;;4992264;28;20276;-61
2022/02/07 05:53:10;;;;;;;;;;;;;;;;;;4994118;28;19953;-61
2022/02/07 05:55:56;;;;;;;;;;;;;;;;;;4991218;28;19918;-61
2022/02/07 05:58:34;;;;;;;;;;;;;;;;;;4996392;28;19924;-61
2022/02/07 06:01:15;;;;;;;;;;;;;;;;;;4984001;28;19928;-61
2022/02/07 06:03:41;;;;;;;;;;;;;;;;;;4989463;28;19985;-62
2022/02/07 06:06:10;;;;;;;;;;;;;;;;;;4993626;28;19914;-62
2022/02/07 06:08:35;;;;;;;;;;;;;;;;;;4992217;28;19910;-62
2022/02/07 06:11:02;;;;;;;;;;;;;;;;;;4975419;28;19922;-62
2022/02/07 06:13:28;;;;;;;;;;;;;;;;;;4978271;28;20000;-62
2022/02/07 06:16:01;;;;;;;;;;;;;;;;;;4992364;28;19925;-62
2022/02/07 06:18:26;;;;;;;;;;;;;;;;;;4992203;28;19913;-61
2022/02/07 06:21:00;;;;;;;;;;;;;;;;;;4996579;28;19913;-62
2022/02/07 06:23:28;;;;;;;;;;;;;;;;;;4990666;28;19964;-62
2022/02/07 06:25:53;;;;;;;;;;;;;;;;;;4976152;28;19961;-61
2022/02/07 06:28:18;;;;;;;;;;;;;;;;;;4993221;28;19953;-62
2022/02/07 06:30:52;;;;;;;;;;;;;;;;;;4990885;28;19952;-62
2022/02/07 06:33:18;;;;;;;;;;;;;;;;;;4994436;28;19953;-62
2022/02/07 06:35:43;;;;;;;;;;;;;;;;;;4993836;28;19921;-63
2022/02/07 06:38:09;;;;;;;;;;;;;;;;;;4989428;28;19914;-62
2022/02/07 06:40:36;;;;;;;;;;;;;;;;;;5001859;28;19922;-62
2022/02/07 06:43:01;;;;;;;;;;;;;;;;;;4990250;28;19932;-62
2022/02/07 06:45:27;;;;;;;;;;;;;;;;;;4992477;28;19945;-62
2022/02/07 06:47:53;;;;;;;;;;;;;;;;;;4987482;28;19925;-62
2022/02/07 06:50:18;;;;;;;;;;;;;;;;;;4993150;28;20627;-62
2022/02/07 06:52:43;;;;;;;;;;;;;;;;;;4993462;28;19918;-62
2022/02/07 06:55:08;;;;;;;;;;;;;;;;;;4985677;28;19916;-61
2022/02/07 06:57:34;;;;;;;;;;;;;;;;;;4999811;28;20149;-61
2022/02/07 07:00:03;;;;;;;;;;;;;;;;;;4995209;28;20003;-62
2022/02/07 07:02:28;;;;;;;;;;;;;;;;;;4983191;28;19928;-62
2022/02/07 07:05:05;;;;;;;;;;;;;;;;;;4992937;28;19965;-60
2022/02/07 07:07:30;;;;;;;;;;;;;;;;;;4994563;28;19971;-60
2022/02/07 07:09:57;;;;;;;;;;;;;;;;;;4993897;28;19930;-63
2022/02/07 07:12:23;;;;;;;;;;;;;;;;;;4994006;28;20660;-61
2022/02/07 07:15:02;;;;;;;;;;;;;;;;;;4996166;28;19978;-61
2022/02/07 07:17:27;;;;;;;;;;;;;;;;;;4998573;28;20361;-61
2022/02/07 07:19:52;;;;;;;;;;;;;;;;;;4993729;28;20168;-61
2022/02/07 07:22:18;;;;;;;;;;;;;;;;;;4996085;28;19925;-61
2022/02/07 07:24:45;;;;;;;;;;;;;;;;;;4975538;28;20364;-61
2022/02/07 07:27:13;;;;;;;;;;;;;;;;;;4994355;28;19918;-61
2022/02/07 07:29:43;;;;;;;;;;;;;;;;;;4995884;28;19964;-60
2022/02/07 07:32:08;;;;;;;;;;;;;;;;;;4981581;28;20708;-61
2022/02/07 07:34:37;;;;;;;;;;;;;;;;;;4992156;28;20795;-61
2022/02/07 07:37:15;;;;;;;;;;;;;;;;;;4996995;28;20355;-61
2022/02/07 07:39:42;;;;;;;;;;;;;;;;;;4980242;28;19920;-61
2022/02/07 07:42:08;;;;;;;;;;;;;;;;;;4995197;28;19918;-61
2022/02/07 07:44:59;;;;;;;;;;;;;;;;;;4987146;28;20385;-61
2022/02/07 07:47:47;;;;;;;;;;;;;;;;;;4976777;28;19961;-61
2022/02/07 07:50:30;;;;;;;;;;;;;;;;;;4979999;28;19921;-61
2022/02/07 07:53:19;;;;;;;;;;;;;;;;;;4996955;28;20037;-61
2022/02/07 08:04:16;;;;;;;;;;;;;;;;;;5000962;28;20391;-62
2022/02/07 08:09:33;;;;;;;;;;;;;;;;;;5002525;28;20513;-61
2022/02/07 08:12:03;;;;;;;;;;;;;;;;;;4990907;28;19925;-61
2022/02/07 08:14:34;;;;;;;;;;;;;;;;;;5000610;28;19913;-61
2022/02/07 08:16:59;;;;;;;;;;;;;;;;;;4999427;28;19914;-62
2022/02/07 08:19:26;;;;;;;;;;;;;;;;;;5000086;28;19914;-61
2022/02/07 08:21:51;;;;;;;;;;;;;;;;;;4995221;28;19925;-61
2022/02/07 08:24:16;;;;;;;;;;;;;;;;;;4993615;28;19921;-62
2022/02/07 08:26:42;;;;;;;;;;;;;;;;;;4993405;28;19921;-62
2022/02/07 08:29:07;;;;;;;;;;;;;;;;;;4994629;28;19956;-61
2022/02/07 08:31:33;;;;;;;;;;;;;;;;;;4995191;28;20315;-61
2022/02/07 08:33:58;;;;;;;;;;;;;;;;;;4994663;28;19913;-61
2022/02/07 08:36:23;;;;;;;;;;;;;;;;;;4997788;28;19943;-63
2022/02/07 08:38:48;;;;;;;;;;;;;;;;;;4993744;28;19921;-62
2022/02/07 08:41:13;;;;;;;;;;;;;;;;;;4992094;28;20303;-62
2022/02/07 08:43:39;;;;;;;;;;;;;;;;;;4992211;28;19921;-62
2022/02/07 08:46:04;;;;;;;;;;;;;;;;;;4996575;28;19929;-63
2022/02/07 08:48:30;;;;;;;;;;;;;;;;;;4992211;28;19914;-63
2022/02/07 08:50:57;;;;;;;;;;;;;;;;;;4995638;28;20429;-63
2022/02/07 08:53:25;;;;;;;;;;;;;;;;;;4993536;28;20669;-63
2022/02/07 08:55:52;;;;;;;;;;;;;;;;;;4994242;28;19913;-62
2022/02/07 08:58:20;;;;;;;;;;;;;;;;;;4994228;28;20392;-63
2022/02/07 09:05:49;;;;;;;;;;;;;;;;;;4992638;28;19938;-62
2022/02/07 09:10:42;;;;;;;;;;;;;;;;;;4995323;28;19909;-62
2022/02/07 09:13:07;;;;;;;;;;;;;;;;;;4995153;28;19921;-62
2022/02/07 09:15:41;;;;;;;;;;;;;;;;;;4992173;28;19931;-62
2022/02/07 09:18:07;;;;;;;;;;;;;;;;;;4992164;28;19914;-63
2022/02/07 09:20:32;;;;;;;;;;;;;;;;;;4992505;28;20270;-62
2022/02/07 09:22:58;;;;;;;;;;;;;;;;;;4993366;28;20730;-63
2022/02/07 09:25:23;;;;;;;;;;;;;;;;;;4993609;28;20008;-62
2022/02/07 09:27:48;;;;;;;;;;;;;;;;;;4992548;28;19953;-63
2022/02/07 09:30:13;;;;;;;;;;;;;;;;;;4992290;28;19917;-63
2022/02/07 09:32:38;;;;;;;;;;;;;;;;;;4996350;28;19928;-62
2022/02/07 09:35:04;;;;;;;;;;;;;;;;;;4990035;28;20040;-63
2022/02/07 09:37:29;;;;;;;;;;;;;;;;;;4994770;28;19925;-62
2022/02/07 09:39:54;;;;;;;;;;;;;;;;;;4994184;28;19999;-63
2022/02/07 09:42:20;;;;;;;;;;;;;;;;;;4994965;28;19918;-63
2022/02/07 09:44:51;;;;;;;;;;;;;;;;;;4978212;28;20243;-62
2022/02/07 09:47:16;;;;;;;;;;;;;;;;;;4992133;28;19918;-63
2022/02/07 09:49:41;;;;;;;;;;;;;;;;;;4992221;28;19917;-63
2022/02/07 09:52:09;;;;;;;;;;;;;;;;;;4993171;28;19928;-63
2022/02/07 09:54:34;;;;;;;;;;;;;;;;;;4993538;28;19928;-62
2022/02/07 09:56:59;;;;;;;;;;;;;;;;;;4994025;28;19914;-63
2022/02/07 09:59:28;;;;;;;;;;;;;;;;;;4987162;28;20000;-63
2022/02/07 10:01:56;;;;;;;;;;;;;;;;;;4970191;28;19922;-62
2022/02/07 10:04:24;;;;;;;;;;;;;;;;;;4963232;28;19921;-62
2022/02/07 10:07:08;;;;;;;;;;;;;;;;;;4992209;28;19918;-62
2022/02/07 10:14:31;;;;;;;;;;;;;;;;;;4993788;28;20437;-63
2022/02/07 10:17:48;;;;;;;;;;;;;;;;;;4998076;28;20060;-63
2022/02/07 10:38:25;;;;;;;;;;;;;;;;;;4992001;28;19913;-63
2022/02/07 10:41:19;;;;;;;;;;;;;;;;;;4990031;28;19940;-64
2022/02/07 10:46:10;;;;;;;;;;;;;;;;;;4954462;28;19926;-64
2022/02/07 10:48:36;;;;;;;;;;;;;;;;;;4992563;28;19964;-63
2022/02/07 10:51:01;;;;;;;;;;;;;;;;;;4992455;28;19917;-64
2022/02/07 10:53:27;;;;;;;;;;;;;;;;;;4990491;28;19913;-63
2022/02/07 10:55:52;;;;;;;;;;;;;;;;;;4990932;28;19914;-62
2022/02/07 10:58:17;;;;;;;;;;;;;;;;;;4994049;28;19968;-63
2022/02/07 11:00:54;;;;;;;;;;;;;;;;;;4987921;28;19972;-63
2022/02/07 11:03:22;;;;;;;;;;;;;;;;;;4986387;28;19924;-63
2022/02/07 11:05:50;;;;;;;;;;;;;;;;;;4973777;28;20315;-63
2022/02/07 11:08:43;;;;;;;;;;;;;;;;;;4999607;28;19913;-63
2022/02/07 11:16:18;;;;;;;;;;;;;;;;;;4994389;28;19925;-63
2022/02/07 11:18:51;;;;;;;;;;;;;;;;;;4996279;28;19924;-63
2022/02/07 11:21:23;;;;;;;;;;;;;;;;;;4991974;28;19913;-66
2022/02/07 11:23:54;;;;;;;;;;;;;;;;;;5002773;28;19952;-64
2022/02/07 11:26:19;;;;;;;;;;;;;;;;;;4997617;28;19918;-64
2022/02/07 11:28:44;;;;;;;;;;;;;;;;;;4994736;28;20463;-63
2022/02/07 11:31:09;;;;;;;;;;;;;;;;;;4994047;28;20366;-64
2022/02/07 11:33:35;;;;;;;;;;;;;;;;;;4993303;28;19924;-61
2022/02/07 11:36:00;;;;;;;;;;;;;;;;;;4994706;28;19920;-61
2022/02/07 11:38:25;;;;;;;;;;;;;;;;;;4992476;28;19921;-63
2022/02/07 11:40:50;;;;;;;;;;;;;;;;;;4993362;28;19917;-64
2022/02/07 11:43:16;;;;;;;;;;;;;;;;;;4995575;28;19917;-62
2022/02/07 11:45:41;;;;;;;;;;;;;;;;;;4994375;28;19955;-62
2022/02/07 11:48:06;;;;;;;;;;;;;;;;;;4994581;28;19968;-63
2022/02/07 11:50:34;;;;;;;;;;;;;;;;;;4995403;28;19918;-63
2022/02/07 11:52:59;;;;;;;;;;;;;;;;;;4995633;28;19960;-62
2022/02/07 11:55:27;;;;;;;;;;;;;;;;;;4993461;28;19918;-62
2022/02/07 12:00:46;;;;;;;;;;;;;;;;;;4984919;28;19944;-62
2022/02/07 12:03:12;;;;;;;;;;;;;;;;;;4995765;28;19987;-63
2022/02/07 12:05:37;;;;;;;;;;;;;;;;;;4995171;28;20008;-63
2022/02/07 12:08:02;;;;;;;;;;;;;;;;;;4995628;28;19957;-63
2022/02/07 12:13:03;;;;;;;;;;;;;;;;;;4996029;28;20354;-62
2022/02/07 12:15:32;;;;;;;;;;;;;;;;;;4992474;28;20035;-63
2022/02/07 12:17:58;;;;;;;;;;;;;;;;;;4992883;28;20311;-63
2022/02/07 12:20:23;;;;;;;;;;;;;;;;;;4995930;28;20369;-63
2022/02/07 12:22:49;;;;;;;;;;;;;;;;;;4991009;28;20827;-63
2022/02/07 12:25:14;;;;;;;;;;;;;;;;;;4993214;28;19921;-63
2022/02/07 12:27:39;;;;;;;;;;;;;;;;;;4996853;28;19968;-64
2022/02/07 12:32:35;;;;;;;;;;;;;;;;;;4994300;28;20522;-64
2022/02/07 12:35:00;;;;;;;;;;;;;;;;;;4992122;28;19914;-64
2022/02/07 12:37:26;;;;;;;;;;;;;;;;;;4992906;28;20597;-64
2022/02/07 12:39:51;;;;;;;;;;;;;;;;;;4994300;28;19970;-64
2022/02/07 12:42:16;;;;;;;;;;;;;;;;;;4995139;28;20000;-65
2022/02/07 12:44:41;;;;;;;;;;;;;;;;;;4995547;28;19930;-66
2022/02/07 12:47:09;;;;;;;;;;;;;;;;;;4992098;28;19918;-64
2022/02/07 12:49:34;;;;;;;;;;;;;;;;;;4995477;28;20370;-64
2022/02/07 12:52:00;;;;;;;;;;;;;;;;;;4993619;28;19920;-64
2022/02/07 12:54:26;;;;;;;;;;;;;;;;;;4994208;28;19914;-64
2022/02/07 12:56:51;;;;;;;;;;;;;;;;;;4992695;28;20522;-63
2022/02/07 12:59:16;;;;;;;;;;;;;;;;;;4990579;28;19971;-63
2022/02/07 13:01:42;;;;;;;;;;;;;;;;;;5001721;28;20512;-63
2022/02/07 13:04:07;;;;;;;;;;;;;;;;;;4993387;28;19991;-63
2022/02/07 13:06:33;;;;;;;;;;;;;;;;;;4993018;28;19917;-64
2022/02/07 13:09:02;;;;;;;;;;;;;;;;;;4992997;28;20370;-64
2022/02/07 13:11:31;;;;;;;;;;;;;;;;;;5009014;28;20111;-64
2022/02/07 13:13:58;;;;;;;;;;;;;;;;;;4999864;28;20370;-63
2022/02/07 13:16:25;;;;;;;;;;;;;;;;;;4993313;28;19914;-63
2022/02/07 13:18:50;;;;;;;;;;;;;;;;;;4999359;28;20248;-63
2022/02/07 13:21:17;;;;;;;;;;;;;;;;;;4993359;28;20358;-64
2022/02/07 13:23:43;;;;;;;;;;;;;;;;;;4994615;28;20317;-63
2022/02/07 13:26:09;;;;;;;;;;;;;;;;;;4991033;28;19928;-63
2022/02/07 13:28:38;;;;;;;;;;;;;;;;;;4992613;28;20425;-64
2022/02/07 13:31:05;;;;;;;;;;;;;;;;;;4992530;28;19925;-63
2022/02/07 13:33:30;;;;;;;;;;;;;;;;;;4994723;28;20085;-62
2022/02/07 13:35:58;;;;;;;;;;;;;;;;;;4992699;28;20315;-63
2022/02/07 13:38:23;;;;;;;;;;;;;;;;;;4993621;28;20004;-63
2022/02/07 13:40:49;;;;;;;;;;;;;;;;;;4991393;28;20000;-63
2022/02/07 13:43:14;;;;;;;;;;;;;;;;;;4991292;28;19925;-63
2022/02/07 13:45:39;;;;;;;;;;;;;;;;;;4990926;28;20323;-63
2022/02/07 13:48:06;;;;;;;;;;;;;;;;;;4990899;28;19922;-64
2022/02/07 13:50:31;;;;;;;;;;;;;;;;;;4992858;28;19953;-63
2022/02/07 13:52:56;;;;;;;;;;;;;;;;;;4992474;28;19945;-63
2022/02/07 13:55:22;;;;;;;;;;;;;;;;;;4991834;28;19937;-64
2022/02/07 13:57:47;;;;;;;;;;;;;;;;;;4990090;28;20764;-64
2022/02/07 14:00:15;;;;;;;;;;;;;;;;;;4990781;28;19929;-64
2022/02/07 14:02:40;;;;;;;;;;;;;;;;;;4998110;28;19917;-64
2022/02/07 14:05:05;;;;;;;;;;;;;;;;;;4993152;28;19927;-64
2022/02/07 14:07:33;;;;;;;;;;;;;;;;;;4992990;28;20541;-63
2022/02/07 14:09:58;;;;;;;;;;;;;;;;;;4991602;28;20281;-64
2022/02/07 14:12:23;;;;;;;;;;;;;;;;;;4996529;28;19909;-64
2022/02/07 14:14:48;;;;;;;;;;;;;;;;;;4993276;28;19918;-64
2022/02/07 14:17:14;;;;;;;;;;;;;;;;;;4990410;28;20251;-64
2022/02/07 14:19:41;;;;;;;;;;;;;;;;;;4991264;28;19917;-65
2022/02/07 14:22:07;;;;;;;;;;;;;;;;;;4993811;28;19917;-65
2022/02/07 14:24:32;;;;;;;;;;;;;;;;;;4992955;28;20537;-64
2022/02/07 14:26:57;;;;;;;;;;;;;;;;;;4990364;28;19913;-63
2022/02/07 14:29:22;;;;;;;;;;;;;;;;;;4990985;28;19918;-63
2022/02/07 14:31:47;;;;;;;;;;;;;;;;;;4977515;28;19916;-64
2022/02/07 14:34:13;;;;;;;;;;;;;;;;;;4991356;28;19917;-65
2022/02/07 14:36:38;;;;;;;;;;;;;;;;;;4990221;28;19914;-66
2022/02/07 14:39:04;;;;;;;;;;;;;;;;;;4991374;28;19942;-64
2022/02/07 14:41:29;;;;;;;;;;;;;;;;;;4992525;28;19918;-66
2022/02/07 14:44:00;;;;;;;;;;;;;;;;;;4975517;28;19918;-64
2022/02/07 14:46:33;;;;;;;;;;;;;;;;;;4988233;28;20374;-63
2022/02/07 14:48:58;;;;;;;;;;;;;;;;;;4989476;28;19924;-64
2022/02/07 14:51:23;;;;;;;;;;;;;;;;;;4990360;28;19917;-63
2022/02/07 14:53:49;;;;;;;;;;;;;;;;;;4991730;28;19960;-63
2022/02/07 14:56:15;;;;;;;;;;;;;;;;;;4991661;28;20325;-63
2022/02/07 14:58:40;;;;;;;;;;;;;;;;;;4990943;28;19934;-63
2022/02/07 15:01:05;;;;;;;;;;;;;;;;;;4993952;28;19925;-63
2022/02/07 15:03:30;;;;;;;;;;;;;;;;;;4992513;28;19917;-64
2022/02/07 15:05:57;;;;;;;;;;;;;;;;;;4991951;28;19917;-64
2022/02/07 15:08:22;;;;;;;;;;;;;;;;;;4998881;28;19923;-65
2022/02/07 15:10:47;;;;;;;;;;;;;;;;;;4983403;28;19977;-65
2022/02/07 15:13:13;;;;;;;;;;;;;;;;;;4994221;28;19914;-64
2022/02/07 15:15:38;;;;;;;;;;;;;;;;;;4992891;28;20052;-63
2022/02/07 15:18:06;;;;;;;;;;;;;;;;;;4991410;28;19918;-63
2022/02/07 15:20:32;;;;;;;;;;;;;;;;;;4991559;28;20012;-63
2022/02/07 15:22:57;;;;;;;;;;;;;;;;;;4989918;28;20044;-63
2022/02/07 15:25:33;;;;;;;;;;;;;;;;;;4991156;28;19917;-64
2022/02/07 15:27:59;;;;;;;;;;;;;;;;;;4994630;28;19921;-64
2022/02/07 15:30:25;;;;;;;;;;;;;;;;;;4998378;28;19918;-63
2022/02/07 15:32:52;;;;;;;;;;;;;;;;;;4990358;28;19914;-63
2022/02/07 15:35:17;;;;;;;;;;;;;;;;;;4991165;28;19913;-63
2022/02/07 15:37:42;;;;;;;;;;;;;;;;;;4991615;28;19933;-63
2022/02/07 15:40:07;;;;;;;;;;;;;;;;;;4992550;28;19922;-64
2022/02/07 15:42:33;;;;;;;;;;;;;;;;;;4991729;28;19914;-64
2022/02/07 15:45:00;;;;;;;;;;;;;;;;;;4988784;28;20755;-64
2022/02/07 15:47:27;;;;;;;;;;;;;;;;;;4992083;28;19918;-63
2022/02/07 15:49:52;;;;;;;;;;;;;;;;;;4993523;28;19922;-63
2022/02/07 15:52:18;;;;;;;;;;;;;;;;;;4996147;28;19972;-63
2022/02/07 15:54:43;;;;;;;;;;;;;;;;;;4994749;28;19971;-64
2022/02/07 15:57:09;;;;;;;;;;;;;;;;;;4979559;28;19964;-64
2022/02/07 15:59:34;;;;;;;;;;;;;;;;;;4996367;28;20019;-64
2022/02/07 16:02:03;;;;;;;;;;;;;;;;;;4994744;28;19918;-64
2022/02/07 16:04:28;;;;;;;;;;;;;;;;;;4997498;28;20419;-64
2022/02/07 16:06:53;;;;;;;;;;;;;;;;;;4995983;28;20370;-64
2022/02/07 16:09:18;;;;;;;;;;;;;;;;;;4997833;28;19957;-62
2022/02/07 16:11:43;;;;;;;;;;;;;;;;;;4994483;28;19914;-64
2022/02/07 16:14:11;;;;;;;;;;;;;;;;;;4987609;28;20261;-63
2022/02/07 16:16:36;;;;;;;;;;;;;;;;;;4991656;28;19972;-63
2022/02/07 16:19:04;;;;;;;;;;;;;;;;;;4992263;28;19917;-63
2022/02/07 16:21:29;;;;;;;;;;;;;;;;;;4994325;28;19924;-64
2022/02/07 16:23:54;;;;;;;;;;;;;;;;;;4993514;28;19972;-64
2022/02/07 16:26:19;;;;;;;;;;;;;;;;;;4992806;28;20024;-65
2022/02/07 16:28:44;;;;;;;;;;;;;;;;;;4997411;28;19917;-64
2022/02/07 16:31:10;;;;;;;;;;;;;;;;;;4996805;28;20328;-65
2022/02/07 16:33:35;;;;;;;;;;;;;;;;;;4992000;28;19921;-65
2022/02/07 16:36:00;;;;;;;;;;;;;;;;;;4991959;28;19918;-64
2022/02/07 16:38:26;;;;;;;;;;;;;;;;;;4990939;28;20325;-65
2022/02/07 16:40:51;;;;;;;;;;;;;;;;;;4994982;28;20608;-64
2022/02/07 16:43:17;;;;;;;;;;;;;;;;;;4995005;28;19920;-64
2022/02/07 16:48:11;;;;;;;;;;;;;;;;;;4995433;28;19925;-64
2022/02/07 16:50:36;;;;;;;;;;;;;;;;;;4993707;28;19913;-64
2022/02/07 16:53:01;;;;;;;;;;;;;;;;;;4993464;28;20008;-64
2022/02/07 16:55:26;;;;;;;;;;;;;;;;;;4992028;28;19917;-64
2022/02/07 16:57:51;;;;;;;;;;;;;;;;;;4994010;28;19953;-64
2022/02/07 17:00:17;;;;;;;;;;;;;;;;;;4992717;28;19921;-63
2022/02/07 17:02:43;;;;;;;;;;;;;;;;;;4994828;28;19930;-64
2022/02/07 17:05:09;;;;;;;;;;;;;;;;;;4979525;28;19936;-64
2022/02/07 17:07:34;;;;;;;;;;;;;;;;;;4996595;28;19921;-64
2022/02/07 17:09:59;;;;;;;;;;;;;;;;;;4998172;28;19914;-65
2022/02/07 17:12:24;;;;;;;;;;;;;;;;;;5017541;28;19914;-65
2022/02/07 17:14:51;;;;;;;;;;;;;;;;;;4996331;28;19917;-63
2022/02/07 17:17:16;;;;;;;;;;;;;;;;;;4997356;28;19911;-64
2022/02/07 17:19:42;;;;;;;;;;;;;;;;;;4995038;28;20440;-64
2022/02/07 17:22:07;;;;;;;;;;;;;;;;;;4995732;28;20239;-64
2022/02/07 17:24:33;;;;;;;;;;;;;;;;;;4993824;28;20304;-64
2022/02/07 17:27:00;;;;;;;;;;;;;;;;;;4994928;28;20429;-64
2022/02/07 17:29:25;;;;;;;;;;;;;;;;;;4995330;28;20667;-64
2022/02/07 17:31:50;;;;;;;;;;;;;;;;;;5002495;28;19924;-65
2022/02/07 17:34:16;;;;;;;;;;;;;;;;;;4995749;28;20678;-64
2022/02/07 17:36:41;;;;;;;;;;;;;;;;;;4994816;28;19920;-64
2022/02/07 17:39:06;;;;;;;;;;;;;;;;;;4997192;28;19921;-64
2022/02/07 17:41:32;;;;;;;;;;;;;;;;;;4995955;28;19922;-64
2022/02/07 17:43:58;;;;;;;;;;;;;;;;;;4994428;28;19976;-63
2022/02/07 17:46:25;;;;;;;;;;;;;;;;;;4995567;28;19976;-63
2022/02/07 17:48:50;;;;;;;;;;;;;;;;;;4995608;28;19913;-63
2022/02/07 17:51:15;;;;;;;;;;;;;;;;;;4999340;28;19918;-64
2022/02/07 17:53:40;;;;;;;;;;;;;;;;;;4995636;28;19972;-64
2022/02/07 17:56:06;;;;;;;;;;;;;;;;;;4991449;28;19909;-64
2022/02/07 17:58:31;;;;;;;;;;;;;;;;;;4977821;28;19918;-63
2022/02/07 18:00:56;;;;;;;;;;;;;;;;;;4991903;28;19924;-64
2022/02/07 18:03:21;;;;;;;;;;;;;;;;;;4996196;28;20032;-64
2022/02/07 18:05:47;;;;;;;;;;;;;;;;;;4991954;28;19948;-64
2022/02/07 18:08:13;;;;;;;;;;;;;;;;;;4991044;28;20412;-64
2022/02/07 18:10:38;;;;;;;;;;;;;;;;;;4991845;28;19917;-64
2022/02/07 18:13:03;;;;;;;;;;;;;;;;;;4993169;28;19979;-64
2022/02/07 18:15:28;;;;;;;;;;;;;;;;;;4991395;28;19913;-64
2022/02/07 18:17:53;;;;;;;;;;;;;;;;;;4990009;28;19917;-64
2022/02/07 18:22:52;;;;;;;;;;;;;;;;;;4991359;28;19914;-64
2022/02/07 18:25:17;;;;;;;;;;;;;;;;;;4991584;28;19932;-64
2022/02/07 18:27:42;;;;;;;;;;;;;;;;;;4992159;28;19914;-64
2022/02/07 18:30:10;;;;;;;;;;;;;;;;;;4989832;28;20474;-63
2022/02/07 18:32:35;;;;;;;;;;;;;;;;;;4988696;28;19918;-63
2022/02/07 18:35:01;;;;;;;;;;;;;;;;;;4991100;28;19925;-64
2022/02/07 18:37:27;;;;;;;;;;;;;;;;;;4993678;28;19929;-64
2022/02/07 18:39:52;;;;;;;;;;;;;;;;;;4981187;28;19924;-64
2022/02/07 18:42:18;;;;;;;;;;;;;;;;;;4992666;28;19913;-64
2022/02/07 18:44:49;;;;;;;;;;;;;;;;;;4994798;28;19933;-65
2022/02/07 18:47:14;;;;;;;;;;;;;;;;;;4995066;28;19921;-64
2022/02/07 18:49:41;;;;;;;;;;;;;;;;;;4993256;28;20113;-64
2022/02/07 18:52:07;;;;;;;;;;;;;;;;;;4994405;28;19921;-63
2022/02/07 18:54:32;;;;;;;;;;;;;;;;;;4992854;28;20278;-63
2022/02/07 18:57:02;;;;;;;;;;;;;;;;;;4992073;28;19925;-64
2022/02/07 18:59:32;;;;;;;;;;;;;;;;;;4993293;28;19972;-64
2022/02/07 19:02:08;;;;;;;;;;;;;;;;;;4990755;28;19957;-63
2022/02/07 19:04:55;;;;;;;;;;;;;;;;;;4991603;28;19918;-63
2022/02/07 19:07:18;;;;;;;;;;;;;;;;;;4991262;28;19949;-63
2022/02/07 19:09:44;;;;;;;;;;;;;;;;;;4994188;28;19942;-64
2022/02/07 19:12:09;;;;;;;;;;;;;;;;;;4991774;28;20266;-64
2022/02/07 19:14:34;;;;;;;;;;;;;;;;;;4985993;28;19924;-64
2022/02/07 19:16:59;;;;;;;;;;;;;;;;;;4994472;28;19919;-65
2022/02/07 19:19:30;;;;;;;;;;;;;;;;;;4990363;28;19913;-64
2022/02/07 19:21:59;;;;;;;;;;;;;;;;;;4992783;28;20175;-64
2022/02/07 19:24:41;;;;;;;;;;;;;;;;;;4991943;28;20829;-64